Weather reports worldwide

Advertisment
La Seo D'Urgell, Spain (8115): temperature & dewpoint: 07.12.2018 10:00:00 - 13.12.2018 10:00:00 (CET)La Seo D'Urgell, Spain (8115): wind speed & gusts: 07.12.2018 10:00:00 - 13.12.2018 10:00:00 (CET)La Seo D'Urgell, Spain (8115): wind direction: 07.12.2018 10:00:00 - 13.12.2018 10:00:00 (CET)La Seo D'Urgell, Spain (8115): precipitation: 07.12.2018 10:00:00 - 13.12.2018 10:00:00 (CET)
Date & Time tt [°C] td [°C] ff [km/h] ff [kn] fx [km/h] fx [kn] dd rr [mm]
13.12.2018 10:00:00 2,7 2,3 0 0 4 2 SSE 0,0
13.12.2018 09:00:00 1,4 0,8 1 0 5 3 SE 0,0
13.12.2018 08:00:00 1,1 0,4 1 0 4 2 SSE 0,0
13.12.2018 07:00:00 2,0 1,3 0 0 3 1 ENE -
13.12.2018 06:00:00 3,2 2,3 1 0 4 2 NNE 0,0
13.12.2018 05:00:00 3,8 2,9 0 0 3 2 N 0,0
13.12.2018 04:00:00 4,0 3,0 0 0 4 2 SSE 0,0
13.12.2018 03:00:00 4,2 3,2 1 0 5 3 NE 0,0
13.12.2018 02:00:00 4,0 3,0 1 1 4 2 SW 0,0
13.12.2018 01:00:00 4,1 3,1 0 0 3 1 E -
13.12.2018 00:00:00 3,9 2,7 0 0 5 3 SW 0,0
12.12.2018 23:00:00 3,8 2,5 1 0 3 2 S 0,0
12.12.2018 22:00:00 3,5 2,0 0 0 3 1 N 0,0
12.12.2018 21:00:00 3,6 1,8 2 1 4 2 NNE 0,0
12.12.2018 20:00:00 4,7 2,4 1 1 4 2 NE 0,0
12.12.2018 19:00:00 5,3 2,5 1 1 4 2 SSE -
12.12.2018 18:00:00 6,2 2,5 1 0 5 3 ENE 0,0
12.12.2018 17:00:00 7,7 2,2 0 0 3 1 S 0,0
12.12.2018 16:00:00 8,6 0,6 1 0 3 2 ESE 0,0
12.12.2018 15:00:00 10,0 0,4 1 0 6 4 SSW 0,0
12.12.2018 14:00:00 - - - - - - - -
12.12.2018 13:00:00 - - - - - - - -
12.12.2018 12:00:00 3,5 1,9 3 2 7 4 SSW 0,0
12.12.2018 11:00:00 0,9 0,3 2 1 5 3 ESE 0,0
12.12.2018 10:00:00 -1,2 -1,6 2 1 6 4 NE 0,0
12.12.2018 09:00:00 -2,9 -3,3 1 0 4 2 N 0,0
12.12.2018 08:00:00 -2,4 -2,8 0 0 4 2 S 0,0
12.12.2018 07:00:00 -1,9 -2,3 1 0 5 3 ENE -
12.12.2018 06:00:00 -1,5 -2,1 1 0 5 3 E 0,0
12.12.2018 05:00:00 -1,3 -1,9 1 0 4 2 W 0,0
12.12.2018 04:00:00 -1,4 -2,0 1 0 4 2 SSW 0,0
12.12.2018 03:00:00 -1,4 -2,1 1 1 5 3 N 0,0
12.12.2018 02:00:00 -1,2 -1,9 0 0 4 2 WSW 0,0
12.12.2018 01:00:00 -0,6 -1,4 1 1 3 2 SSW -
12.12.2018 00:00:00 -0,7 -1,7 1 1 5 3 NE 0,0
11.12.2018 23:00:00 -0,2 -1,3 1 0 4 2 SW 0,0
11.12.2018 22:00:00 -0,2 -1,5 1 0 4 2 SE 0,0
11.12.2018 21:00:00 0,4 -1,3 0 0 4 2 ENE 0,0
11.12.2018 20:00:00 1,3 -1,1 1 0 4 2 ENE 0,0
11.12.2018 19:00:00 2,5 -1,1 1 0 4 2 E -
11.12.2018 18:00:00 4,6 -1,0 0 0 3 2 E 0,0
11.12.2018 17:00:00 8,5 -1,0 0 0 5 3 SSW 0,0
11.12.2018 16:00:00 10,8 -2,9 3 2 7 4 SSW 0,0
11.12.2018 15:00:00 12,6 -2,4 3 1 7 4 SSW 0,0
11.12.2018 14:00:00 11,2 -1,9 3 2 8 4 S 0,0
11.12.2018 13:00:00 8,2 -1,3 4 2 7 4 SSW -
11.12.2018 12:00:00 3,3 -1,2 2 1 5 3 SW 0,0
11.12.2018 11:00:00 0,4 -1,0 2 1 5 3 SE 0,0
11.12.2018 10:00:00 -2,1 -2,6 1 0 4 2 SSE 0,0
11.12.2018 09:00:00 -3,7 -4,2 2 1 4 2 N 0,0
11.12.2018 08:00:00 -3,6 -4,1 1 0 3 2 NE 0,0
11.12.2018 07:00:00 -3,5 -4,2 0 0 3 2 N -
11.12.2018 06:00:00 -3,3 -4,0 0 0 4 2 ESE 0,0
11.12.2018 05:00:00 -3,1 -3,8 1 0 3 2 NE 0,0
11.12.2018 04:00:00 -2,7 -3,4 1 0 3 2 S 0,0
11.12.2018 03:00:00 -2,4 -3,2 0 0 4 2 S 0,0
11.12.2018 02:00:00 -2,2 -3,0 0 0 4 2 SSE 0,0
11.12.2018 01:00:00 -1,8 -2,6 0 0 5 3 NNE -
11.12.2018 00:00:00 -1,4 -2,4 1 0 4 2 NNE 0,0
10.12.2018 23:00:00 -0,9 -2,0 0 0 3 2 NNE 0,0
10.12.2018 22:00:00 -0,5 -1,8 1 0 4 2 ESE 0,0
10.12.2018 21:00:00 0,3 -1,4 0 0 4 2 E 0,0
10.12.2018 20:00:00 1,2 -1,4 1 0 3 2 E 0,0
10.12.2018 19:00:00 2,8 -0,6 1 0 4 2 SSW -
10.12.2018 18:00:00 5,2 -0,4 1 0 5 3 NE 0,0
10.12.2018 17:00:00 8,9 -0,4 2 1 9 5 WSW 0,0
10.12.2018 16:00:00 11,7 -1,8 6 3 11 6 WSW 0,0
10.12.2018 15:00:00 15,6 -1,9 2 1 8 4 SSW 0,0
10.12.2018 14:00:00 13,5 -1,6 1 1 6 3 SE 0,0
10.12.2018 13:00:00 9,6 -1,7 2 1 6 3 E -
10.12.2018 12:00:00 4,6 -2,0 2 1 5 3 S 0,0
10.12.2018 11:00:00 1,4 -1,0 1 0 3 2 E 0,0
10.12.2018 10:00:00 -0,6 -1,9 1 1 4 2 N 0,0
10.12.2018 09:00:00 -1,2 -2,5 0 0 4 2 SE 0,0
10.12.2018 08:00:00 -1,1 -2,5 1 0 4 2 E 0,0
10.12.2018 07:00:00 -1,1 -2,5 1 1 5 3 NE -
10.12.2018 06:00:00 -1,2 -2,9 0 0 5 3 E 0,0
10.12.2018 05:00:00 -1,1 -3,0 0 0 6 3 SSW 0,0
10.12.2018 04:00:00 -0,9 -2,9 1 1 7 4 N 0,0
10.12.2018 03:00:00 -0,1 -2,6 0 0 13 7 NNW 0,0
10.12.2018 02:00:00 0,3 -2,4 0 0 6 4 NNE 0,0
10.12.2018 01:00:00 0,5 -2,4 2 1 6 3 NNE -
10.12.2018 00:00:00 1,2 -2,4 0 0 4 2 W 0,0
09.12.2018 23:00:00 2,1 -3,4 1 0 8 4 ENE 0,0
09.12.2018 22:00:00 4,2 -4,0 1 0 9 5 N 0,0
09.12.2018 21:00:00 6,6 -5,3 2 1 11 6 NNE 0,0
09.12.2018 20:00:00 9,2 -6,2 2 1 15 8 NE 0,0
09.12.2018 19:00:00 11,0 -7,2 6 3 14 7 N -
09.12.2018 18:00:00 14,4 -8,2 6 4 24 13 WSW 0,0
09.12.2018 17:00:00 16,5 -8,6 8 4 22 12 SW 0,0
09.12.2018 16:00:00 17,9 -7,4 10 5 31 17 SW 0,0
09.12.2018 15:00:00 17,8 -4,1 11 6 26 14 SW 0,0
09.12.2018 14:00:00 11,5 1,7 4 2 9 5 ENE 0,0
09.12.2018 13:00:00 8,4 2,9 1 1 9 5 SE -
09.12.2018 12:00:00 3,4 2,2 3 1 8 4 SSW 0,0
09.12.2018 11:00:00 0,9 0,3 2 1 7 4 SW 0,0
09.12.2018 10:00:00 -1,2 -1,8 1 0 8 4 SSE 0,0
09.12.2018 09:00:00 -3,1 -3,6 0 0 6 4 NE 0,0
09.12.2018 08:00:00 -3,1 -3,6 0 0 7 4 N 0,0
09.12.2018 07:00:00 -2,8 -3,3 1 0 6 4 ENE -
09.12.2018 06:00:00 -2,4 -2,9 1 0 5 3 N 0,0
09.12.2018 05:00:00 -2,1 -2,6 1 1 5 3 E 0,0
09.12.2018 04:00:00 -2,0 -2,5 1 1 6 3 N 0,0
09.12.2018 03:00:00 -1,4 -2,1 0 0 4 2 SE 0,0
09.12.2018 02:00:00 -1,0 -1,7 0 0 6 3 N 0,0
09.12.2018 01:00:00 -0,5 -1,2 1 1 5 3 ENE -
09.12.2018 00:00:00 -0,3 -1,1 0 0 4 2 W 0,0
08.12.2018 23:00:00 0,0 -1,0 1 1 6 3 S 0,0
08.12.2018 22:00:00 0,5 -0,6 1 0 5 3 NE 0,0
08.12.2018 21:00:00 1,0 -0,4 0 0 7 4 SW 0,0
08.12.2018 20:00:00 1,8 -0,3 2 1 6 3 SW 0,0
08.12.2018 19:00:00 3,0 -0,1 1 0 4 2 S -
08.12.2018 18:00:00 5,1 -0,5 0 0 4 2 WSW 0,0
08.12.2018 17:00:00 9,2 0,1 2 1 6 4 SW 0,0
08.12.2018 16:00:00 10,6 0,9 4 2 9 5 WSW 0,0
08.12.2018 15:00:00 11,4 0,5 4 2 10 5 SW 0,0
08.12.2018 14:00:00 9,4 0,6 5 3 11 6 WSW 0,0
08.12.2018 13:00:00 6,6 5,4 4 2 9 5 SSW -
08.12.2018 12:00:00 3,2 2,8 4 2 9 5 SSW 0,0
08.12.2018 11:00:00 1,5 1,1 2 1 7 4 S 0,0
08.12.2018 10:00:00 0,0 -0,4 3 1 7 4 S 0,0
08.12.2018 09:00:00 -1,4 -1,7 0 0 6 3 NNE 0,0
08.12.2018 08:00:00 -1,4 -1,7 2 1 7 4 SSW 0,0
08.12.2018 07:00:00 -0,8 -1,1 1 1 6 3 NE -
08.12.2018 06:00:00 -0,2 -0,5 1 0 7 4 WNW 0,0
08.12.2018 05:00:00 0,2 -0,1 1 1 5 3 ESE 0,0
08.12.2018 04:00:00 0,2 -0,1 1 1 6 3 N 0,0
08.12.2018 03:00:00 0,3 -0,1 1 0 9 5 ESE 0,0
08.12.2018 02:00:00 1,3 0,9 1 1 6 3 ENE 0,0
08.12.2018 01:00:00 1,9 1,3 1 1 6 4 ENE -
08.12.2018 00:00:00 1,5 0,8 0 0 7 4 NE 0,0
07.12.2018 23:00:00 1,0 0,1 1 0 6 4 N 0,0
07.12.2018 22:00:00 1,0 0,0 2 1 5 3 S 0,0
07.12.2018 21:00:00 1,5 0,2 3 1 5 3 N 0,0
07.12.2018 20:00:00 2,4 0,6 1 1 5 3 NE 0,0
07.12.2018 19:00:00 3,9 1,1 1 0 7 4 N -
07.12.2018 18:00:00 6,0 1,5 3 1 7 4 SSW 0,0
07.12.2018 17:00:00 10,0 2,1 3 2 10 6 SW 0,0
07.12.2018 16:00:00 11,2 1,5 6 3 11 6 SW 0,0
07.12.2018 15:00:00 12,3 1,0 5 3 11 6 SSW 0,0
07.12.2018 14:00:00 11,8 2,0 3 2 8 4 SW 0,0
07.12.2018 13:00:00 8,5 4,7 2 1 7 4 WSW -
07.12.2018 12:00:00 3,3 2,9 2 1 7 4 SSE 0,0
07.12.2018 11:00:00 1,4 1,0 1 1 6 3 SSE 0,0
07.12.2018 10:00:00 -0,6 -1,0 3 2 5 3 SW 0,0

tt = temperature
td = dewpoint
ff = wind speed
fx = gusts
dd = wind direction
rr = precipitation

Next stations